createdAt,value
2022-08-15T00:01:44.707Z,66.48
2022-08-15T00:04:32.665Z,67.07
2022-08-15T00:06:59.787Z,67.63
2022-08-15T00:09:54.698Z,68.08
2022-08-15T00:12:27.913Z,67.22
2022-08-15T00:15:14.484Z,67.23
2022-08-15T00:17:48.719Z,68.11
2022-08-15T00:20:20.946Z,67.07
2022-08-15T00:23:00.310Z,67.22
2022-08-15T00:25:29.793Z,67.10
2022-08-15T00:27:56.870Z,68.04
2022-08-15T00:30:25.861Z,68.40
2022-08-15T00:33:18.488Z,68.24
2022-08-15T00:35:55.764Z,67.88
2022-08-15T00:38:39.864Z,67.98
2022-08-15T00:41:36.601Z,67.37
2022-08-15T00:44:09.639Z,67.73
2022-08-15T00:46:41.280Z,68.07
2022-08-15T00:49:12.444Z,67.13
2022-08-15T00:52:01.744Z,66.84
2022-08-15T00:54:58.236Z,66.59
2022-08-15T00:57:57.781Z,66.99
2022-08-15T01:00:45.192Z,67.35
2022-08-15T01:03:28.995Z,66.86
2022-08-15T01:06:00.458Z,67.27
2022-08-15T01:08:39.484Z,67.24
2022-08-15T01:11:33.338Z,66.99
2022-08-15T01:14:05.307Z,67.29
2022-08-15T01:16:49.725Z,67.81
2022-08-15T01:19:24.575Z,68.29
2022-08-15T01:22:24.788Z,68.03
2022-08-15T01:25:26.195Z,68.99
2022-08-15T01:28:00.774Z,69.41
2022-08-15T01:30:39.550Z,68.96
2022-08-15T01:33:28.479Z,69.47
2022-08-15T01:35:57.188Z,69.35
2022-08-15T01:38:33.661Z,69.47
2022-08-15T01:41:42.060Z,69.73
2022-08-15T01:44:25.635Z,70.09
2022-08-15T01:47:26.041Z,69.90
2022-08-15T01:50:01.733Z,70.02
2022-08-15T01:52:59.935Z,70.36
2022-08-15T01:55:44.020Z,71.16
2022-08-15T01:58:11.954Z,71.79
2022-08-15T02:01:04.033Z,71.57
2022-08-15T02:03:49.198Z,72.10
2022-08-15T02:06:35.342Z,71.79
2022-08-15T02:09:17.894Z,73.54
2022-08-15T02:13:02.136Z,74.47
2022-08-15T02:14:54.674Z,75.30
2022-08-15T02:17:22.824Z,75.79
2022-08-15T02:19:52.827Z,75.88
2022-08-15T02:22:25.930Z,75.42
2022-08-15T02:24:56.790Z,75.76
2022-08-15T02:27:26.687Z,76.02
2022-08-15T02:29:55.678Z,77.55
2022-08-15T02:32:30.530Z,78.82
2022-08-15T02:35:02.848Z,79.33
2022-08-15T02:37:36.101Z,79.54
2022-08-15T02:40:45.678Z,79.48
2022-08-15T02:42:56.552Z,79.91
2022-08-15T02:45:23.786Z,79.89
2022-08-15T02:47:53.240Z,81.24
2022-08-15T02:50:25.063Z,81.61
2022-08-15T02:52:53.654Z,82.94
2022-08-15T02:55:22.109Z,83.39
2022-08-15T02:57:59.507Z,83.59
2022-08-15T03:00:33.455Z,83.89
2022-08-15T03:03:15.299Z,84.32
2022-08-15T03:05:55.085Z,85.33
2022-08-15T03:08:22.451Z,84.88
2022-08-15T03:10:53.729Z,85.69
2022-08-15T03:13:24.383Z,86.61
2022-08-15T03:15:56.889Z,87.42
2022-08-15T03:18:31.819Z,87.43
2022-08-15T03:21:07.465Z,88.26
2022-08-15T03:23:42.353Z,88.56
2022-08-15T03:26:26.264Z,88.83
2022-08-15T03:29:04.523Z,89.95
2022-08-15T03:31:44.888Z,90.34
2022-08-15T03:34:15.707Z,91.14
2022-08-15T03:36:52.727Z,91.14
2022-08-15T03:39:21.568Z,90.97
2022-08-15T03:41:54.760Z,90.46
2022-08-15T03:44:27.101Z,90.90
2022-08-15T03:46:56.496Z,90.92
2022-08-15T03:50:22.685Z,91.75
2022-08-15T03:52:12.134Z,92.80
2022-08-15T03:54:39.326Z,92.75
2022-08-15T03:57:08.407Z,92.97
2022-08-15T03:59:40.172Z,94.86
2022-08-15T04:02:30.004Z,96.77
2022-08-15T04:04:59.183Z,97.15
2022-08-15T04:07:39.941Z,97.29
2022-08-15T04:10:39.186Z,97.41
2022-08-15T04:13:03.181Z,98.70
2022-08-15T04:15:32.319Z,98.59
2022-08-15T04:18:00.848Z,98.12
2022-08-15T04:20:32.954Z,97.62
2022-08-15T04:23:02.418Z,98.63
2022-08-15T04:25:38.592Z,97.35
2022-08-15T04:28:53.124Z,98.03
2022-08-15T04:31:09.042Z,96.35
2022-08-15T04:34:44.636Z,96.16
2022-08-15T04:36:29.523Z,96.48
2022-08-15T04:38:59.624Z,97.46
2022-08-15T04:41:36.304Z,96.70
2022-08-15T04:44:17.834Z,94.83
2022-08-15T04:46:46.281Z,95.44
2022-08-15T04:49:16.874Z,94.34
2022-08-15T04:51:45.494Z,94.51
2022-08-15T04:54:12.744Z,93.53
2022-08-15T04:56:50.380Z,92.73
2022-08-15T04:59:35.774Z,92.26
2022-08-15T05:02:55.176Z,92.66
2022-08-15T05:04:56.723Z,91.24
2022-08-15T05:07:27.577Z,91.50
2022-08-15T05:10:03.661Z,91.46
2022-08-15T05:12:41.730Z,90.05
2022-08-15T05:15:11.666Z,90.69
2022-08-15T05:17:55.420Z,91.07
2022-08-15T05:20:25.747Z,91.08
2022-08-15T05:23:14.739Z,93.12
2022-08-15T05:25:53.183Z,95.96
2022-08-15T05:28:30.104Z,95.09
2022-08-15T05:31:07.121Z,95.60
2022-08-15T05:33:56.364Z,97.54
2022-08-15T05:36:28.149Z,96.77
2022-08-15T05:39:06.623Z,97.38
2022-08-15T05:42:12.912Z,95.84
2022-08-15T05:45:30.778Z,96.64
2022-08-15T05:48:19.512Z,97.31
2022-08-15T05:51:18.834Z,98.53
2022-08-15T05:54:19.779Z,99.08
2022-08-15T05:57:15.856Z,97.16
2022-08-15T05:59:56.851Z,98.66
2022-08-15T06:02:36.573Z,100.00
2022-08-15T06:05:33.681Z,99.46
2022-08-15T06:08:49.426Z,100.00
2022-08-15T06:11:32.060Z,99.56
2022-08-15T06:14:13.906Z,100.00
2022-08-15T06:16:56.383Z,100.00
2022-08-15T06:19:33.632Z,98.93
2022-08-15T06:22:26.044Z,100.00
2022-08-15T06:25:37.307Z,99.41
2022-08-15T06:28:51.880Z,100.00
2022-08-15T06:31:38.811Z,99.79
2022-08-15T06:34:46.397Z,99.33
2022-08-15T06:38:01.183Z,97.03
2022-08-15T06:40:52.833Z,95.18
2022-08-15T06:43:22.615Z,95.43
2022-08-15T06:45:55.542Z,94.73
2022-08-15T06:48:55.190Z,95.01
2022-08-15T06:51:14.470Z,94.11
2022-08-15T06:53:50.619Z,94.20
2022-08-15T06:56:32.629Z,94.40
2022-08-15T06:59:12.714Z,94.39
2022-08-15T07:02:15.877Z,94.82
2022-08-15T07:05:29.086Z,95.62
2022-08-15T07:08:37.282Z,96.49
2022-08-15T07:11:23.187Z,96.28
2022-08-15T07:14:20.949Z,95.46
2022-08-15T07:17:18.231Z,93.88
2022-08-15T07:19:55.399Z,94.68
2022-08-15T07:22:46.656Z,92.60
2022-08-15T07:25:16.703Z,91.72
2022-08-15T07:28:00.667Z,91.79
2022-08-15T07:31:03.917Z,88.44
2022-08-15T07:34:05.594Z,88.02
2022-08-15T07:37:03.017Z,85.59
2022-08-15T07:39:49.319Z,85.73
2022-08-15T07:42:28.976Z,84.17
2022-08-15T07:45:32.658Z,86.26
2022-08-15T07:48:25.652Z,85.15
2022-08-15T07:51:46.152Z,85.91
2022-08-15T07:54:35.408Z,85.26
2022-08-15T07:57:52.391Z,82.73
2022-08-15T08:00:44.780Z,81.23
2022-08-15T08:03:34.411Z,82.49
2022-08-15T08:06:51.546Z,80.81
2022-08-15T08:09:32.297Z,77.72
2022-08-15T08:12:56.893Z,74.72
2022-08-15T08:15:53.966Z,74.33
2022-08-15T08:18:48.958Z,76.55
2022-08-15T08:21:29.917Z,79.67
2022-08-15T08:24:08.304Z,82.73
2022-08-15T08:26:47.850Z,83.61
2022-08-15T08:29:36.352Z,82.83
2022-08-15T08:32:44.900Z,82.01
2022-08-15T08:35:52.776Z,81.09
2022-08-15T08:39:04.990Z,80.79
2022-08-15T08:41:55.913Z,79.25
2022-08-15T08:45:11.692Z,79.95
2022-08-15T08:48:06.808Z,75.99
2022-08-15T08:51:33.008Z,75.15
2022-08-15T08:55:00.707Z,75.35
2022-08-15T08:57:46.857Z,74.77
2022-08-15T09:00:29.698Z,72.50
2022-08-15T09:03:07.718Z,72.65
2022-08-15T09:05:47.331Z,71.64
2022-08-15T09:08:35.868Z,69.83
2022-08-15T09:11:28.594Z,66.89
2022-08-15T09:14:00.733Z,68.82
2022-08-15T09:16:38.299Z,68.92
2022-08-15T09:19:13.535Z,70.69
2022-08-15T09:21:44.702Z,71.49
2022-08-15T09:24:36.850Z,71.62
2022-08-15T09:27:32.054Z,70.13
2022-08-15T09:30:44.943Z,71.42
2022-08-15T09:33:32.066Z,69.13
2022-08-15T09:36:25.106Z,66.89
2022-08-15T09:39:47.126Z,65.33
2022-08-15T09:42:35.892Z,65.07
2022-08-15T09:45:44.951Z,65.04
2022-08-15T09:49:03.545Z,66.03
2022-08-15T09:51:58.644Z,66.23
2022-08-15T09:54:45.893Z,66.93
2022-08-15T09:57:36.592Z,67.80
2022-08-15T10:00:20.294Z,65.95
2022-08-15T10:02:54.061Z,63.42
2022-08-15T10:05:52.603Z,63.20
2022-08-15T10:08:29.618Z,61.77
2022-08-15T10:11:12.432Z,63.54
2022-08-15T10:13:45.397Z,63.94
2022-08-15T10:16:43.397Z,62.43
2022-08-15T10:19:35.325Z,64.25
2022-08-15T10:22:23.384Z,65.73
2022-08-15T10:25:17.001Z,61.58
2022-08-15T10:28:36.814Z,62.21
2022-08-15T10:31:01.423Z,61.08
2022-08-15T10:33:42.813Z,63.10
2022-08-15T10:36:41.640Z,64.69
2022-08-15T10:39:29.379Z,62.59
2022-08-15T10:42:24.948Z,61.87
2022-08-15T10:45:16.287Z,61.41
2022-08-15T10:48:45.308Z,61.50
2022-08-15T10:51:54.610Z,61.60
2022-08-15T10:54:49.364Z,59.40
2022-08-15T10:57:22.826Z,59.49
2022-08-15T10:59:56.964Z,59.30
2022-08-15T11:02:45.313Z,57.76
2022-08-15T11:05:32.805Z,59.70
2022-08-15T11:08:03.507Z,60.10
2022-08-15T11:10:34.203Z,58.69
2022-08-15T11:13:15.266Z,57.96
2022-08-15T11:15:57.940Z,56.69
2022-08-15T11:18:34.630Z,56.89
2022-08-15T11:21:41.271Z,56.07
2022-08-15T11:24:12.323Z,56.15
2022-08-15T11:26:53.774Z,57.42
2022-08-15T11:29:25.587Z,57.81
2022-08-15T11:32:00.852Z,58.33
2022-08-15T11:34:56.650Z,57.34
2022-08-15T11:37:36.846Z,55.21
2022-08-15T11:40:23.045Z,55.10
2022-08-15T11:42:57.084Z,55.47
2022-08-15T11:45:50.146Z,54.85
2022-08-15T11:49:06.095Z,54.13
2022-08-15T11:52:40.729Z,54.05
2022-08-15T11:54:34.625Z,54.84
2022-08-15T11:57:43.764Z,53.52
2022-08-15T12:00:28.754Z,53.91
2022-08-15T12:11:35.526Z,53.48
2022-08-15T12:13:11.838Z,53.96
2022-08-15T12:13:17.164Z,54.88
2022-08-15T12:13:17.783Z,54.81
2022-08-15T12:14:30.065Z,55.11
2022-08-15T12:17:05.575Z,53.06
2022-08-15T12:20:25.093Z,52.41
2022-08-15T12:22:52.999Z,53.17
2022-08-15T12:25:37.946Z,53.06
2022-08-15T12:28:25.420Z,52.64
2022-08-15T12:31:06.031Z,52.71
2022-08-15T12:33:52.594Z,51.66
2022-08-15T12:37:05.989Z,52.93
2022-08-15T12:39:11.006Z,51.77
2022-08-15T12:42:54.224Z,52.61
2022-08-15T12:44:34.487Z,51.93
2022-08-15T12:47:06.961Z,51.39
2022-08-15T12:49:47.546Z,51.46
2022-08-15T12:52:18.570Z,51.57
2022-08-15T12:54:48.949Z,50.50
2022-08-15T12:57:19.262Z,50.58
2022-08-15T12:59:50.452Z,50.82
2022-08-15T13:02:46.808Z,50.23
2022-08-15T13:05:14.450Z,50.55
2022-08-15T13:08:06.277Z,50.32
2022-08-15T13:11:01.315Z,51.21
2022-08-15T13:13:17.953Z,51.54
2022-08-15T13:15:45.656Z,50.17
2022-08-15T13:18:23.903Z,51.89
2022-08-15T13:21:11.567Z,52.37
2022-08-15T13:24:11.256Z,53.32
2022-08-15T13:26:30.297Z,57.55
2022-08-15T13:29:01.566Z,60.47
2022-08-15T13:31:29.884Z,60.59
2022-08-15T13:34:00.227Z,60.01
2022-08-15T13:36:31.969Z,60.04
2022-08-15T13:39:11.354Z,60.27
2022-08-15T13:41:47.873Z,59.56
2022-08-15T13:44:31.003Z,56.69
2022-08-15T13:47:00.979Z,57.09
2022-08-15T13:49:30.615Z,60.36
2022-08-15T13:52:00.776Z,61.53
2022-08-15T13:54:49.661Z,62.80
2022-08-15T13:57:23.523Z,62.19
2022-08-15T13:59:57.467Z,61.33
2022-08-15T14:02:35.837Z,59.54
2022-08-15T14:05:07.372Z,58.11
2022-08-15T14:07:53.019Z,58.33
2022-08-15T14:10:58.431Z,60.15
2022-08-15T14:13:18.053Z,63.11
2022-08-15T14:16:08.574Z,63.28
2022-08-15T14:18:49.468Z,64.53
2022-08-15T14:21:26.876Z,64.34
2022-08-15T14:23:59.778Z,65.65
2022-08-15T14:27:13.635Z,64.66
2022-08-15T14:32:51.218Z,64.57
2022-08-15T14:35:17.062Z,66.23
2022-08-15T14:37:49.028Z,66.73
2022-08-15T14:40:35.478Z,66.66
2022-08-15T14:43:03.288Z,65.77
2022-08-15T14:46:34.677Z,63.12
2022-08-15T14:48:47.380Z,60.08
2022-08-15T14:52:11.873Z,60.00
2022-08-15T14:54:44.495Z,60.44
2022-08-15T14:57:16.386Z,61.34
2022-08-15T15:00:01.205Z,62.18
2022-08-15T15:02:33.508Z,61.93
2022-08-15T15:05:03.818Z,61.91
2022-08-15T15:07:54.681Z,60.60
2022-08-15T15:10:25.632Z,60.10
2022-08-15T15:13:01.656Z,61.09
2022-08-15T15:15:40.349Z,60.63
2022-08-15T15:18:38.169Z,61.15
2022-08-15T15:21:10.283Z,59.74
2022-08-15T15:23:39.251Z,58.85
2022-08-15T15:26:09.271Z,59.74
2022-08-15T15:28:42.040Z,59.80
2022-08-15T15:31:19.011Z,59.18
2022-08-15T15:33:48.015Z,58.46
2022-08-15T15:36:29.514Z,59.24
2022-08-15T15:39:05.273Z,58.91
2022-08-15T15:41:47.410Z,59.19
2022-08-15T15:44:20.592Z,58.47
2022-08-15T15:46:51.654Z,58.41
2022-08-15T15:49:33.349Z,58.34
2022-08-15T15:52:08.871Z,59.34
2022-08-15T15:54:53.427Z,60.63
2022-08-15T15:57:42.769Z,61.78
2022-08-15T16:00:28.073Z,63.45
2022-08-15T16:03:01.738Z,63.42
2022-08-15T16:06:04.946Z,65.21
2022-08-15T16:08:32.720Z,65.33
2022-08-15T16:11:25.963Z,66.04
2022-08-15T16:14:31.721Z,66.98
2022-08-15T16:17:38.251Z,65.20
2022-08-15T16:20:41.610Z,65.39
2022-08-15T16:23:20.001Z,65.08
2022-08-15T16:26:21.570Z,65.09
2022-08-15T16:29:00.577Z,64.05
2022-08-15T16:31:45.000Z,64.49
2022-08-15T16:34:28.386Z,65.74
2022-08-15T16:37:05.439Z,66.85
2022-08-15T16:39:45.621Z,65.64
2022-08-15T16:42:48.405Z,63.83
2022-08-15T16:45:24.837Z,64.27
2022-08-15T16:48:25.167Z,65.11
2022-08-15T16:51:15.317Z,65.98
2022-08-15T16:54:39.309Z,66.58
2022-08-15T16:57:52.599Z,66.70
2022-08-15T17:00:42.935Z,66.97
2022-08-15T17:03:34.673Z,67.16
2022-08-15T17:06:25.050Z,64.83
2022-08-15T17:09:55.277Z,63.80
2022-08-15T17:12:53.717Z,64.27
2022-08-15T17:15:45.734Z,63.75
2022-08-15T17:18:45.955Z,63.41
2022-08-15T17:21:39.243Z,63.72
2022-08-15T17:24:55.250Z,64.83
2022-08-15T17:27:58.270Z,65.00
2022-08-15T17:30:57.056Z,65.21
2022-08-15T17:34:02.887Z,65.10
2022-08-15T17:36:51.665Z,65.53
2022-08-15T17:39:53.010Z,64.83
2022-08-15T17:42:25.771Z,63.70
2022-08-15T17:45:37.804Z,65.18
2022-08-15T17:48:30.899Z,66.04
2022-08-15T17:51:17.632Z,66.15
2022-08-15T17:53:52.491Z,66.90
2022-08-15T17:56:36.738Z,67.54
2022-08-15T17:59:13.231Z,68.05
2022-08-15T18:01:40.868Z,68.17
2022-08-15T18:04:09.585Z,67.93
2022-08-15T18:06:38.716Z,68.86
2022-08-15T18:09:15.679Z,69.14
2022-08-15T18:12:16.843Z,69.23
2022-08-15T18:14:45.862Z,68.89
2022-08-15T18:17:42.403Z,68.95
2022-08-15T18:20:32.224Z,68.82
2022-08-15T18:23:19.935Z,68.87
2022-08-15T18:25:52.800Z,68.53
2022-08-15T18:28:33.808Z,69.40
2022-08-15T18:31:23.327Z,69.95
2022-08-15T18:34:03.843Z,69.53
2022-08-15T18:36:58.336Z,69.48
2022-08-15T18:40:01.097Z,69.50
2022-08-15T18:42:32.981Z,69.83
2022-08-15T18:45:05.860Z,69.64
2022-08-15T18:47:42.962Z,70.63
2022-08-15T18:50:44.547Z,70.29
2022-08-15T18:53:26.814Z,71.44
2022-08-15T18:56:26.036Z,71.29
2022-08-15T18:58:48.222Z,71.83
2022-08-15T19:01:28.002Z,71.61
2022-08-15T19:03:55.273Z,71.67
2022-08-15T19:06:34.460Z,72.51
2022-08-15T19:09:28.138Z,73.78
2022-08-15T19:12:00.250Z,73.53
2022-08-15T19:14:33.988Z,73.09
2022-08-15T19:17:19.194Z,73.99
2022-08-15T19:19:56.057Z,73.93
2022-08-15T19:22:29.492Z,74.09
2022-08-15T19:25:01.082Z,74.34
2022-08-15T19:27:56.124Z,74.68
2022-08-15T19:30:35.569Z,75.21
2022-08-15T19:33:17.182Z,76.22
2022-08-15T19:36:18.051Z,77.00
2022-08-15T19:39:51.250Z,76.68
2022-08-15T19:42:45.254Z,76.54
2022-08-15T19:45:27.248Z,76.94
2022-08-15T19:48:20.757Z,77.01
2022-08-15T19:51:39.249Z,77.16
2022-08-15T19:55:21.545Z,78.51
2022-08-15T19:58:07.763Z,79.15
2022-08-15T20:00:53.910Z,79.23
2022-08-15T20:03:32.886Z,79.04
2022-08-15T20:06:21.918Z,80.68
2022-08-15T20:09:12.881Z,80.59
2022-08-15T20:12:19.281Z,81.06
2022-08-15T20:15:04.121Z,82.18
2022-08-15T20:17:58.422Z,82.41
2022-08-15T20:20:43.952Z,82.06
2022-08-15T20:23:42.902Z,82.74
2022-08-15T20:26:44.604Z,82.99
2022-08-15T20:29:34.236Z,83.02
2022-08-15T20:32:22.834Z,83.46
2022-08-15T20:35:16.090Z,83.33
2022-08-15T20:37:53.801Z,83.39
2022-08-15T20:40:28.583Z,83.82
2022-08-15T20:43:11.535Z,84.18
2022-08-15T20:45:44.220Z,84.94
2022-08-15T20:48:42.382Z,84.67
2022-08-15T20:52:36.284Z,84.49
2022-08-15T20:54:35.002Z,84.87
2022-08-15T20:57:10.523Z,84.19
2022-08-15T20:59:56.015Z,84.32
2022-08-15T21:02:49.976Z,84.69
2022-08-15T21:05:42.096Z,84.12
2022-08-15T21:08:33.605Z,84.42
2022-08-15T21:11:21.549Z,85.35
2022-08-15T21:15:08.355Z,85.49
2022-08-15T21:17:46.446Z,85.76
2022-08-15T21:20:32.934Z,85.64
2022-08-15T21:23:23.936Z,86.17
2022-08-15T21:25:59.034Z,85.75
2022-08-15T21:28:41.575Z,86.28
2022-08-15T21:31:40.109Z,86.99
2022-08-15T21:34:31.827Z,87.74
2022-08-15T21:37:40.008Z,87.40
2022-08-15T21:40:38.937Z,87.89
2022-08-15T21:43:44.481Z,87.59
2022-08-15T21:46:53.026Z,87.33
2022-08-15T21:49:38.541Z,88.19
2022-08-15T21:52:36.114Z,88.22
2022-08-15T21:55:09.494Z,89.31
2022-08-15T21:57:43.435Z,89.08
2022-08-15T22:00:35.775Z,88.66
2022-08-15T22:03:24.481Z,89.25
2022-08-15T22:06:25.032Z,90.03
2022-08-15T22:08:55.723Z,90.60
2022-08-15T22:11:46.965Z,90.35
2022-08-15T22:14:28.221Z,91.34
2022-08-15T22:17:01.595Z,90.67
2022-08-15T22:19:29.287Z,90.47
2022-08-15T22:22:18.825Z,89.85
2022-08-15T22:24:50.582Z,90.16
2022-08-15T22:27:22.180Z,90.28
2022-08-15T22:29:51.395Z,90.85
2022-08-15T22:32:31.517Z,90.77
2022-08-15T22:35:00.402Z,90.60
2022-08-15T22:37:34.555Z,90.49
2022-08-15T22:40:18.574Z,90.82
2022-08-15T22:43:04.504Z,91.85
2022-08-15T22:45:47.714Z,91.86
2022-08-15T22:48:29.015Z,91.61
2022-08-15T22:51:08.492Z,92.11
2022-08-15T22:53:38.392Z,91.48
2022-08-15T22:56:45.745Z,91.45
2022-08-15T22:58:59.619Z,91.88
2022-08-15T23:01:35.147Z,91.52
2022-08-15T23:04:39.204Z,92.64
2022-08-15T23:07:25.449Z,92.53
2022-08-15T23:10:24.098Z,93.30
2022-08-15T23:12:55.788Z,92.98
2022-08-15T23:15:36.336Z,93.36
2022-08-15T23:18:09.151Z,93.52
2022-08-15T23:20:48.299Z,93.33
2022-08-15T23:23:36.542Z,92.54
2022-08-15T23:26:31.366Z,91.70
2022-08-15T23:29:09.595Z,92.15
2022-08-15T23:31:48.481Z,93.19
2022-08-15T23:34:21.342Z,93.63
2022-08-15T23:37:14.540Z,93.81
2022-08-15T23:39:58.058Z,93.25
2022-08-15T23:42:39.463Z,93.81
2022-08-15T23:45:12.010Z,93.48
2022-08-15T23:47:42.513Z,93.40
2022-08-15T23:50:11.131Z,93.49
2022-08-15T23:52:39.700Z,92.48
2022-08-15T23:55:15.654Z,93.31
2022-08-15T23:57:47.512Z,93.53
